createdAt,value
2018-08-27T00:00:04.620Z,94624.95
2018-08-27T00:02:32.912Z,94628.30
2018-08-27T00:05:01.195Z,94615.77
2018-08-27T00:07:29.471Z,94617.80
2018-08-27T00:09:57.747Z,94618.73
2018-08-27T00:12:26.031Z,94619.45
2018-08-27T00:14:54.299Z,94624.59
2018-08-27T00:17:22.570Z,94621.94
2018-08-27T00:19:50.843Z,94615.78
2018-08-27T00:22:19.103Z,94626.83
2018-08-27T00:24:47.400Z,94623.12
2018-08-27T00:27:15.660Z,94618.75
2018-08-27T00:29:43.958Z,94621.83
2018-08-27T00:32:12.261Z,94620.42
2018-08-27T00:34:40.520Z,94609.19
2018-08-27T00:37:08.791Z,94611.59
2018-08-27T00:39:37.044Z,94607.48
2018-08-27T00:42:05.300Z,94606.90
2018-08-27T00:44:33.551Z,94601.57
2018-08-27T00:47:01.862Z,94600.05
2018-08-27T00:49:30.251Z,94601.42
2018-08-27T00:51:58.872Z,94595.34
2018-08-27T00:54:27.298Z,94594.28
2018-08-27T00:56:55.603Z,94595.70
2018-08-27T00:59:23.914Z,94592.23
2018-08-27T01:01:52.404Z,94587.98
2018-08-27T01:04:20.883Z,94573.86
2018-08-27T01:09:22.472Z,94574.41
2018-08-27T01:11:51.048Z,94568.45
2018-08-27T01:14:19.551Z,94569.52
2018-08-27T01:16:47.977Z,94559.59
2018-08-27T01:19:16.383Z,94560.04
2018-08-27T01:21:46.024Z,94554.35
2018-08-27T01:24:15.772Z,94550.67
2018-08-27T01:26:44.647Z,94553.39
2018-08-27T01:29:13.376Z,94545.84
2018-08-27T01:31:41.811Z,94548.97
2018-08-27T01:34:10.287Z,94555.45
2018-08-27T01:36:38.728Z,94540.79
2018-08-27T01:39:07.831Z,94535.79
2018-08-27T01:41:37.267Z,94523.80
2018-08-27T01:44:05.839Z,94522.80
2018-08-27T01:46:34.262Z,94526.05
2018-08-27T01:49:02.740Z,94520.73
2018-08-27T01:51:31.083Z,94521.84
2018-08-27T01:53:59.427Z,94512.52
2018-08-27T01:56:27.920Z,94508.96
2018-08-27T01:58:56.376Z,94522.33
2018-08-27T02:01:24.877Z,94506.48
2018-08-27T02:03:53.392Z,94503.66
2018-08-27T02:06:21.830Z,94496.49
2018-08-27T02:08:50.199Z,94497.65
2018-08-27T02:11:18.882Z,94493.00
2018-08-27T02:13:47.343Z,94492.20
2018-08-27T02:16:15.779Z,94487.87
2018-08-27T02:18:44.246Z,94494.01
2018-08-27T02:21:12.660Z,94481.71
2018-08-27T02:23:41.204Z,94484.25
2018-08-27T02:26:09.718Z,94481.13
2018-08-27T02:28:38.118Z,94483.88
2018-08-27T02:31:06.466Z,94483.25
2018-08-27T02:33:34.843Z,94474.41
2018-08-27T02:36:03.492Z,94475.95
2018-08-27T02:38:32.195Z,94465.28
2018-08-27T02:41:00.673Z,94464.53
2018-08-27T02:43:29.083Z,94470.90
2018-08-27T02:45:57.445Z,94463.23
2018-08-27T02:48:25.824Z,94478.66
2018-08-27T02:50:54.311Z,94464.53
2018-08-27T02:53:22.763Z,94469.31
2018-08-27T02:55:51.177Z,94448.80
2018-08-27T02:58:19.551Z,94464.84
2018-08-27T03:00:47.962Z,94460.98
2018-08-27T03:03:16.640Z,94455.64
2018-08-27T03:05:45.074Z,94443.67
2018-08-27T03:08:13.513Z,94444.00
2018-08-27T03:10:41.873Z,94447.19
2018-08-27T03:13:10.246Z,94448.06
2018-08-27T03:15:38.619Z,94444.36
2018-08-27T03:18:07.147Z,94441.95
2018-08-27T03:20:35.867Z,94435.20
2018-08-27T03:23:04.291Z,94437.39
2018-08-27T03:25:32.976Z,94437.93
2018-08-27T03:28:01.347Z,94427.13
2018-08-27T03:30:32.598Z,94425.88
2018-08-27T03:33:01.035Z,94424.48
2018-08-27T03:35:29.381Z,94424.06
2018-08-27T03:37:57.763Z,94411.34
2018-08-27T03:40:26.159Z,94412.93
2018-08-27T03:42:54.592Z,94410.83
2018-08-27T03:45:23.016Z,94427.77
2018-08-27T03:47:51.431Z,94409.43
2018-08-27T03:50:19.824Z,94420.02
2018-08-27T03:52:48.208Z,94397.32
2018-08-27T03:55:16.755Z,94412.30
2018-08-27T03:57:45.159Z,94425.94
2018-08-27T04:00:13.533Z,94418.81
2018-08-27T04:02:42.005Z,94421.92
2018-08-27T04:05:10.413Z,94412.13
2018-08-27T04:07:38.876Z,94412.09
2018-08-27T04:10:07.373Z,94414.91
2018-08-27T04:12:35.671Z,94420.67
2018-08-27T04:15:04.111Z,94415.55
2018-08-27T04:17:33.913Z,94411.66
2018-08-27T04:20:03.435Z,94419.60
2018-08-27T04:22:31.945Z,94421.07
2018-08-27T04:25:00.460Z,94430.63
2018-08-27T04:27:28.920Z,94414.11
2018-08-27T04:29:57.380Z,94418.03
2018-08-27T04:32:25.766Z,94416.59
2018-08-27T04:34:54.297Z,94420.17
2018-08-27T04:37:22.964Z,94412.56
2018-08-27T04:39:51.584Z,94406.63
2018-08-27T04:42:20.191Z,94407.48
2018-08-27T04:44:48.560Z,94419.77
2018-08-27T04:47:16.916Z,94413.05
2018-08-27T04:49:45.272Z,94426.42
2018-08-27T04:52:14.035Z,94418.76
2018-08-27T04:54:42.751Z,94421.91
2018-08-27T04:57:11.287Z,94423.72
2018-08-27T04:59:43.421Z,94422.34
2018-08-27T05:02:11.944Z,94424.05
2018-08-27T05:04:40.396Z,94425.48
2018-08-27T05:07:08.795Z,94433.58
2018-08-27T05:09:37.232Z,94439.82
2018-08-27T05:12:05.601Z,94431.72
2018-08-27T05:14:33.893Z,94434.33
2018-08-27T05:17:03.592Z,94440.42
2018-08-27T05:19:31.891Z,94438.52
2018-08-27T05:22:01.036Z,94435.30
2018-08-27T05:24:29.582Z,94423.50
2018-08-27T05:26:57.925Z,94423.84
2018-08-27T05:29:26.346Z,94434.25
2018-08-27T05:31:54.780Z,94436.51
2018-08-27T05:34:25.323Z,94445.88
2018-08-27T05:36:53.637Z,94443.95
2018-08-27T05:39:22.008Z,94442.23
2018-08-27T05:41:50.382Z,94440.50
2018-08-27T05:44:18.829Z,94441.41
2018-08-27T05:46:47.546Z,94442.73
2018-08-27T05:49:15.827Z,94442.95
2018-08-27T05:51:44.182Z,94442.33
2018-08-27T05:54:12.551Z,94447.51
2018-08-27T05:56:40.995Z,94454.96
2018-08-27T05:59:09.439Z,94456.09
2018-08-27T06:01:37.855Z,94451.84
2018-08-27T06:04:06.292Z,94450.83
2018-08-27T06:06:34.644Z,94455.23
2018-08-27T06:09:03.013Z,94455.16
2018-08-27T06:11:31.374Z,94458.59
2018-08-27T06:13:59.762Z,94458.30
2018-08-27T06:16:28.077Z,94454.42
2018-08-27T06:18:56.437Z,94454.00
2018-08-27T06:21:24.800Z,94456.58
2018-08-27T06:23:53.183Z,94454.13
2018-08-27T06:26:21.544Z,94462.73
2018-08-27T06:28:49.909Z,94454.34
2018-08-27T06:31:18.287Z,94447.41
2018-08-27T06:33:46.695Z,94448.12
2018-08-27T06:36:15.139Z,94459.64
2018-08-27T06:38:43.543Z,94448.83
2018-08-27T06:41:11.918Z,94450.53
2018-08-27T06:43:40.307Z,94453.66
2018-08-27T06:46:09.294Z,94454.88
2018-08-27T06:48:37.645Z,94459.34
2018-08-27T06:51:06.058Z,94452.03
2018-08-27T06:53:34.503Z,94462.75
2018-08-27T06:56:02.892Z,94465.79
2018-08-27T06:58:31.291Z,94458.72
2018-08-27T07:00:59.692Z,94455.17
2018-08-27T07:03:28.174Z,94466.39
2018-08-27T07:05:56.650Z,94462.58
2018-08-27T07:08:25.044Z,94466.55
2018-08-27T07:10:53.547Z,94463.12
2018-08-27T07:13:21.995Z,94471.44
2018-08-27T07:15:50.441Z,94482.14
2018-08-27T07:18:18.839Z,94483.42
2018-08-27T07:20:47.299Z,94485.96
2018-08-27T07:23:15.699Z,94484.52
2018-08-27T07:25:44.120Z,94483.59
2018-08-27T07:28:12.566Z,94491.92
2018-08-27T07:30:40.991Z,94500.18
2018-08-27T07:33:09.371Z,94497.37
2018-08-27T07:35:37.844Z,94496.80
2018-08-27T07:38:06.367Z,94493.95
2018-08-27T07:40:34.664Z,94493.19
2018-08-27T07:43:03.080Z,94505.21
2018-08-27T07:45:31.504Z,94502.61
2018-08-27T07:47:59.895Z,94504.52
2018-08-27T07:50:28.316Z,94507.34
2018-08-27T07:52:56.847Z,94507.59
2018-08-27T07:55:25.417Z,94505.56
2018-08-27T07:57:53.852Z,94506.55
2018-08-27T08:00:23.371Z,94508.17
2018-08-27T08:02:53.053Z,94516.80
2018-08-27T08:05:21.505Z,94509.05
2018-08-27T08:07:50.140Z,94520.37
2018-08-27T08:10:18.762Z,94510.66
2018-08-27T08:12:48.139Z,94513.03
2018-08-27T08:15:16.727Z,94515.70
2018-08-27T08:17:45.142Z,94520.89
2018-08-27T08:20:13.623Z,94517.46
2018-08-27T08:22:42.201Z,94519.13
2018-08-27T08:25:10.519Z,94522.05
2018-08-27T08:27:39.088Z,94521.06
2018-08-27T08:30:07.639Z,94520.89
2018-08-27T08:32:36.055Z,94503.84
2018-08-27T08:35:04.701Z,94520.98
2018-08-27T08:37:33.075Z,94514.16
2018-08-27T08:40:01.914Z,94518.14
2018-08-27T08:42:30.104Z,94528.17
2018-08-27T08:44:58.520Z,94518.39
2018-08-27T08:47:26.933Z,94531.91
2018-08-27T08:49:55.308Z,94521.28
2018-08-27T08:52:23.903Z,94529.03
2018-08-27T08:54:52.307Z,94521.83
2018-08-27T08:57:20.708Z,94530.82
2018-08-27T08:59:49.099Z,94530.34
2018-08-27T09:02:17.471Z,94537.27
2018-08-27T09:04:45.954Z,94527.64
2018-08-27T09:07:14.319Z,94527.45
2018-08-27T09:09:42.903Z,94539.34
2018-08-27T09:12:11.199Z,94535.64
2018-08-27T09:14:39.558Z,94542.05
2018-08-27T09:17:07.987Z,94538.17
2018-08-27T09:19:36.324Z,94530.70
2018-08-27T09:22:04.695Z,94535.19
2018-08-27T09:24:33.109Z,94535.33
2018-08-27T09:27:01.459Z,94533.80
2018-08-27T09:29:30.040Z,94538.73
2018-08-27T09:31:58.355Z,94541.96
2018-08-27T09:34:26.835Z,94541.52
2018-08-27T09:36:55.240Z,94542.27
2018-08-27T09:39:23.526Z,94542.70
2018-08-27T09:41:52.002Z,94551.45
2018-08-27T09:44:20.421Z,94550.86
2018-08-27T09:46:48.941Z,94549.22
2018-08-27T09:49:17.274Z,94554.43
2018-08-27T09:51:45.622Z,94546.95
2018-08-27T09:54:14.127Z,94557.97
2018-08-27T09:56:42.649Z,94548.28
2018-08-27T09:59:11.229Z,94552.00
2018-08-27T10:01:43.698Z,94555.40
2018-08-27T10:04:12.125Z,94551.61
2018-08-27T10:06:40.496Z,94557.02
2018-08-27T10:09:08.937Z,94559.30
2018-08-27T10:11:37.364Z,94558.72
2018-08-27T10:14:05.806Z,94559.30
2018-08-27T10:16:34.361Z,94567.02
2018-08-27T10:19:02.679Z,94563.76
2018-08-27T10:21:31.082Z,94569.09
2018-08-27T10:23:59.608Z,94573.05
2018-08-27T10:26:28.085Z,94576.27
2018-08-27T10:28:56.467Z,94578.33
2018-08-27T10:31:24.874Z,94576.46
2018-08-27T10:33:53.275Z,94568.23
2018-08-27T10:36:22.635Z,94573.16
2018-08-27T10:38:50.967Z,94580.63
2018-08-27T10:41:19.267Z,94582.06
2018-08-27T10:43:47.550Z,94583.60
2018-08-27T10:46:15.876Z,94579.10
2018-08-27T10:48:44.365Z,94585.16
2018-08-27T10:51:12.752Z,94583.47
2018-08-27T10:53:41.182Z,94589.20
2018-08-27T10:56:09.623Z,94583.83
2018-08-27T10:58:38.036Z,94595.73
2018-08-27T11:01:06.463Z,94592.44
2018-08-27T11:03:34.855Z,94592.25
2018-08-27T11:06:03.211Z,94583.72
2018-08-27T11:08:31.573Z,94587.77
2018-08-27T11:10:59.974Z,94589.70
2018-08-27T11:13:28.410Z,94595.18
2018-08-27T11:15:57.695Z,94595.09
2018-08-27T11:18:25.979Z,94601.71
2018-08-27T11:20:54.272Z,94599.95
2018-08-27T11:23:22.585Z,94604.98
2018-08-27T11:25:52.792Z,94602.41
2018-08-27T11:28:21.454Z,94604.05
2018-08-27T11:30:49.916Z,94610.16
2018-08-27T11:33:18.455Z,94615.12
2018-08-27T11:35:46.959Z,94625.45
2018-08-27T11:38:15.492Z,94619.45
2018-08-27T11:40:43.847Z,94622.82
2018-08-27T11:43:12.344Z,94626.92
2018-08-27T11:45:40.804Z,94629.81
2018-08-27T11:48:10.273Z,94631.12
2018-08-27T11:50:38.784Z,94640.98
2018-08-27T11:53:07.060Z,94634.47
2018-08-27T11:55:35.383Z,94636.63
2018-08-27T11:58:03.727Z,94634.30
2018-08-27T12:00:37.392Z,94640.11
2018-08-27T12:03:05.666Z,94633.64
2018-08-27T12:05:33.988Z,94635.61
2018-08-27T12:08:02.316Z,94629.94
2018-08-27T12:10:30.755Z,94632.42
2018-08-27T12:12:59.188Z,94639.83
2018-08-27T12:15:27.549Z,94639.76
2018-08-27T12:17:55.897Z,94626.44
2018-08-27T12:20:24.309Z,94634.09
2018-08-27T12:22:52.676Z,94639.46
2018-08-27T12:25:21.029Z,94637.66
2018-08-27T12:27:49.483Z,94631.69
2018-08-27T12:30:17.859Z,94643.61
2018-08-27T12:32:46.256Z,94636.66
2018-08-27T12:35:14.679Z,94640.56
2018-08-27T12:37:43.183Z,94639.14
2018-08-27T12:40:11.564Z,94639.93
2018-08-27T12:42:40.122Z,94645.23
2018-08-27T12:45:08.547Z,94642.09
2018-08-27T12:47:36.926Z,94642.16
2018-08-27T12:50:05.347Z,94637.52
2018-08-27T12:52:33.925Z,94633.78
2018-08-27T12:55:02.296Z,94636.42
2018-08-27T12:57:30.783Z,94642.58
2018-08-27T12:59:59.192Z,94645.08
2018-08-27T13:02:27.645Z,94645.64
2018-08-27T13:04:57.065Z,94643.41
2018-08-27T13:07:25.517Z,94637.13
2018-08-27T13:09:53.964Z,94654.78
2018-08-27T13:12:22.420Z,94651.25
2018-08-27T13:14:50.853Z,94651.88
2018-08-27T13:17:19.344Z,94645.59
2018-08-27T13:19:47.906Z,94653.67
2018-08-27T13:22:17.339Z,94660.19
2018-08-27T13:24:45.773Z,94656.78
2018-08-27T13:27:14.214Z,94653.67
2018-08-27T13:29:42.616Z,94647.62
2018-08-27T13:32:11.432Z,94648.02
2018-08-27T13:34:39.854Z,94639.12
2018-08-27T13:37:08.555Z,94651.30
2018-08-27T13:39:37.122Z,94659.54
2018-08-27T13:42:05.492Z,94657.05
2018-08-27T13:44:33.956Z,94661.20
2018-08-27T13:47:02.346Z,94667.26
2018-08-27T13:49:30.763Z,94666.83
2018-08-27T13:52:01.915Z,94667.19
2018-08-27T13:54:31.060Z,94675.82
2018-08-27T13:56:59.703Z,94678.03
2018-08-27T13:59:28.130Z,94679.02
2018-08-27T14:01:57.946Z,94682.36
2018-08-27T14:04:27.071Z,94682.52
2018-08-27T14:06:55.479Z,94686.36
2018-08-27T14:09:23.882Z,94691.75
2018-08-27T14:11:52.383Z,94693.63
2018-08-27T14:14:20.873Z,94691.44
2018-08-27T14:16:49.328Z,94703.00
2018-08-27T14:19:17.821Z,94708.16
2018-08-27T14:21:46.194Z,94701.48
2018-08-27T14:24:14.599Z,94709.06
2018-08-27T14:26:43.259Z,94708.66
2018-08-27T14:29:11.699Z,94708.42
2018-08-27T14:31:42.038Z,94707.28
2018-08-27T14:34:10.945Z,94704.39
2018-08-27T14:36:39.393Z,94713.68
2018-08-27T14:39:09.647Z,94705.65
2018-08-27T14:41:39.182Z,94709.48
2018-08-27T14:44:07.621Z,94718.47
2018-08-27T14:46:36.270Z,94716.31
2018-08-27T14:49:04.854Z,94717.41
2018-08-27T14:51:33.317Z,94720.56
2018-08-27T14:54:01.797Z,94726.23
2018-08-27T14:56:30.639Z,94713.01
2018-08-27T14:59:00.147Z,94729.23
2018-08-27T15:01:28.725Z,94726.21
2018-08-27T15:03:58.098Z,94725.08
2018-08-27T15:06:26.473Z,94729.43
2018-08-27T15:08:54.821Z,94739.80
2018-08-27T15:11:23.172Z,94734.50
2018-08-27T15:13:51.559Z,94730.18
2018-08-27T15:16:19.988Z,94731.12
2018-08-27T15:18:48.504Z,94737.04
2018-08-27T15:21:16.988Z,94744.07
2018-08-27T15:23:45.473Z,94735.09
2018-08-27T15:26:13.959Z,94744.07
2018-08-27T15:28:42.465Z,94752.55
2018-08-27T15:31:10.912Z,94745.00
2018-08-27T15:33:39.252Z,94749.16
2018-08-27T15:36:07.628Z,94753.09
2018-08-27T15:38:37.067Z,94757.96
2018-08-27T15:41:06.251Z,94763.94
2018-08-27T15:43:34.640Z,94768.62
2018-08-27T15:46:08.307Z,94767.27
2018-08-27T15:48:36.589Z,94767.83
2018-08-27T15:51:04.966Z,94771.27
2018-08-27T15:53:33.207Z,94775.39
2018-08-27T15:56:02.560Z,94780.36
2018-08-27T15:58:30.867Z,94774.72
2018-08-27T16:01:00.047Z,94780.23
2018-08-27T16:03:28.363Z,94782.75
2018-08-27T16:05:56.769Z,94778.36
2018-08-27T16:08:27.106Z,94777.47
2018-08-27T16:10:55.429Z,94779.95
2018-08-27T16:13:24.186Z,94796.04
2018-08-27T16:15:52.496Z,94794.86
2018-08-27T16:18:21.973Z,94794.20
2018-08-27T16:20:50.322Z,94790.84
2018-08-27T16:23:18.726Z,94794.45
2018-08-27T16:25:46.987Z,94796.52
2018-08-27T16:28:15.425Z,94797.81
2018-08-27T16:30:43.699Z,94798.88
2018-08-27T16:33:12.033Z,94805.26
2018-08-27T16:35:40.307Z,94803.80
2018-08-27T16:38:08.883Z,94803.39
2018-08-27T16:40:37.167Z,94808.23
2018-08-27T16:43:05.477Z,94815.08
2018-08-27T16:45:34.767Z,94813.76
2018-08-27T16:48:03.047Z,94813.84
2018-08-27T16:50:31.336Z,94814.20
2018-08-27T16:52:59.638Z,94810.69
2018-08-27T16:55:27.919Z,94816.14
2018-08-27T16:57:56.210Z,94814.44
2018-08-27T17:00:24.549Z,94820.31
2018-08-27T17:02:52.867Z,94828.09
2018-08-27T17:05:21.235Z,94830.78
2018-08-27T17:07:49.587Z,94825.20
2018-08-27T17:10:17.969Z,94832.04
2018-08-27T17:12:47.287Z,94839.31
2018-08-27T17:15:15.603Z,94834.11
2018-08-27T17:17:43.932Z,94841.32
2018-08-27T17:20:12.260Z,94844.72
2018-08-27T17:22:40.652Z,94852.07
2018-08-27T17:25:08.958Z,94850.98
2018-08-27T17:27:37.359Z,94858.09
2018-08-27T17:30:05.995Z,94863.11
2018-08-27T17:32:34.401Z,94865.05
2018-08-27T17:35:08.956Z,94860.69
2018-08-27T17:37:37.283Z,94870.36
2018-08-27T17:40:05.807Z,94870.89
2018-08-27T17:42:34.162Z,94876.11
2018-08-27T17:45:02.609Z,94875.42
2018-08-27T17:47:31.896Z,94879.58
2018-08-27T17:50:00.187Z,94879.80
2018-08-27T17:52:28.504Z,94880.99
2018-08-27T17:54:56.806Z,94888.06
2018-08-27T17:57:25.084Z,94902.96
2018-08-27T17:59:54.432Z,94893.67
2018-08-27T18:02:22.706Z,94897.30
2018-08-27T18:04:51.086Z,94905.13
2018-08-27T18:07:19.302Z,94913.81
2018-08-27T18:09:47.608Z,94906.74
2018-08-27T18:12:16.035Z,94910.63
2018-08-27T18:14:44.443Z,94909.34
2018-08-27T18:17:12.763Z,94916.36
2018-08-27T18:19:41.187Z,94919.96
2018-08-27T18:22:09.438Z,94913.23
2018-08-27T18:24:37.807Z,94922.88
2018-08-27T18:27:06.112Z,94918.70
2018-08-27T18:29:34.493Z,94927.27
2018-08-27T18:32:03.927Z,94933.06
2018-08-27T18:34:32.294Z,94936.19
2018-08-27T18:37:00.635Z,94938.09
2018-08-27T18:39:28.920Z,94938.02
2018-08-27T18:41:57.460Z,94943.47
2018-08-27T18:44:25.766Z,94945.39
2018-08-27T18:46:54.043Z,94947.73
2018-08-27T18:49:22.342Z,94953.58
2018-08-27T18:51:50.645Z,94952.45
2018-08-27T18:54:18.915Z,94963.19
2018-08-27T18:56:47.192Z,94954.20
2018-08-27T18:59:15.499Z,94957.38
2018-08-27T19:01:44.615Z,94959.96
2018-08-27T19:04:13.115Z,94960.11
2018-08-27T19:06:41.554Z,94964.84
2018-08-27T19:09:10.310Z,94972.18
2018-08-27T19:11:38.604Z,94975.31
2018-08-27T19:14:08.227Z,94976.02
2018-08-27T19:16:37.053Z,94981.92
2018-08-27T19:19:05.435Z,94986.31
2018-08-27T19:21:33.787Z,94986.42
2018-08-27T19:24:02.161Z,94991.78
2018-08-27T19:26:30.440Z,94995.53
2018-08-27T19:29:01.292Z,94999.14
2018-08-27T19:31:29.546Z,94998.03
2018-08-27T19:33:57.872Z,95008.56
2018-08-27T19:36:26.338Z,95008.86
2018-08-27T19:38:54.447Z,95011.30
2018-08-27T19:41:22.848Z,95017.35
2018-08-27T19:43:53.189Z,95014.91
2018-08-27T19:46:21.519Z,95017.27
2018-08-27T19:48:49.909Z,95016.87
2018-08-27T19:51:18.183Z,95027.59
2018-08-27T19:53:46.491Z,95028.45
2018-08-27T19:56:14.941Z,95027.59
2018-08-27T19:58:43.246Z,95029.50
2018-08-27T20:01:11.567Z,95026.42
2018-08-27T20:03:39.927Z,95030.16
2018-08-27T20:06:08.249Z,95042.08
2018-08-27T20:08:58.479Z,95035.84
2018-08-27T20:11:26.784Z,95042.40
2018-08-27T20:13:55.089Z,95036.78
2018-08-27T20:16:23.412Z,95036.96
2018-08-27T20:18:51.646Z,95038.95
2018-08-27T20:21:19.939Z,95052.29
2018-08-27T20:23:48.344Z,95048.78
2018-08-27T20:26:16.678Z,95057.59
2018-08-27T20:28:44.918Z,95059.28
2018-08-27T20:31:13.200Z,95059.44
2018-08-27T20:33:44.375Z,95058.60
2018-08-27T20:36:12.719Z,95059.49
2018-08-27T20:38:41.037Z,95065.15
2018-08-27T20:41:09.394Z,95069.74
2018-08-27T20:43:38.680Z,95069.76
2018-08-27T20:46:07.120Z,95071.58
2018-08-27T20:48:35.536Z,95077.02
2018-08-27T20:51:03.940Z,95080.55
2018-08-27T20:56:21.739Z,95084.05
2018-08-27T20:58:50.192Z,95088.31
2018-08-27T21:01:18.532Z,95095.02
2018-08-27T21:03:46.831Z,95100.17
2018-08-27T21:06:15.483Z,95095.95
2018-08-27T21:08:43.930Z,95100.63
2018-08-27T21:11:12.405Z,95105.75
2018-08-27T21:13:40.941Z,95105.10
2018-08-27T21:16:09.286Z,95108.56
2018-08-27T21:18:37.699Z,95110.19
2018-08-27T21:21:06.311Z,95120.33
2018-08-27T21:23:34.926Z,95119.47
2018-08-27T21:26:04.269Z,95132.52
2018-08-27T21:28:32.638Z,95131.55
2018-08-27T21:31:00.918Z,95140.84
2018-08-27T21:33:29.183Z,95131.18
2018-08-27T21:35:57.458Z,95135.16
2018-08-27T21:38:25.729Z,95142.12
2018-08-27T21:40:53.984Z,95146.85
2018-08-27T21:43:22.266Z,95150.30
2018-08-27T21:45:50.549Z,95148.09
2018-08-27T21:48:18.866Z,95149.58
2018-08-27T21:50:47.134Z,95149.88
2018-08-27T21:53:15.409Z,95146.86
2018-08-27T21:55:43.684Z,95144.89
2018-08-27T21:58:11.948Z,95148.88
2018-08-27T22:00:45.455Z,95153.34
2018-08-27T22:03:18.983Z,95154.70
2018-08-27T22:05:47.312Z,95156.34
2018-08-27T22:08:15.611Z,95162.54
2018-08-27T22:10:43.951Z,95164.30
2018-08-27T22:13:12.249Z,95163.52
2018-08-27T22:15:40.622Z,95166.70
2018-08-27T22:18:08.902Z,95168.13
2018-08-27T22:20:37.229Z,95175.75
2018-08-27T22:23:05.735Z,95170.44
2018-08-27T22:25:34.089Z,95182.11
2018-08-27T22:28:02.350Z,95175.08
2018-08-27T22:30:31.740Z,95178.08
2018-08-27T22:33:00.057Z,95172.34
2018-08-27T22:35:28.372Z,95177.06
2018-08-27T22:37:56.671Z,95171.42
2018-08-27T22:40:25.020Z,95177.76
2018-08-27T22:42:54.504Z,95183.86
2018-08-27T22:45:22.847Z,95183.49
2018-08-27T22:47:51.167Z,95174.73
2018-08-27T22:50:19.483Z,95174.16
2018-08-27T22:52:47.771Z,95183.08
2018-08-27T22:55:16.105Z,95186.17
2018-08-27T22:57:44.388Z,95195.84
2018-08-27T23:00:12.728Z,95194.31
2018-08-27T23:02:46.331Z,95192.56
2018-08-27T23:05:14.593Z,95197.04
2018-08-27T23:07:42.903Z,95205.58
2018-08-27T23:10:11.323Z,95207.78
2018-08-27T23:12:39.682Z,95208.19
2018-08-27T23:15:08.045Z,95204.41
2018-08-27T23:17:37.471Z,95205.70
2018-08-27T23:20:05.955Z,95213.63
2018-08-27T23:22:34.329Z,95208.50
2018-08-27T23:25:02.777Z,95210.97
2018-08-27T23:27:31.224Z,95221.87
2018-08-27T23:29:59.627Z,95223.19
2018-08-27T23:32:28.044Z,95216.08
2018-08-27T23:35:07.943Z,95221.45
2018-08-27T23:37:39.153Z,95211.56
2018-08-27T23:40:07.553Z,95221.08
2018-08-27T23:42:35.891Z,95220.47
2018-08-27T23:45:04.349Z,95217.38
2018-08-27T23:47:32.704Z,95220.63
2018-08-27T23:50:01.064Z,95224.17
2018-08-27T23:52:29.480Z,95226.34
2018-08-27T23:54:57.801Z,95230.31
2018-08-27T23:57:26.225Z,95233.06
2018-08-27T23:59:54.520Z,95230.52
